Time;durP1;ratioP1;P1;durP2;ratioP2;P2;SDS_P1;SDS_P2;PMS_P1;PMS_P2;Temp;Humidity;BMP_temperature;BMP_pressure;BME280_temperature;BME280_humidity;BME280_pressure;Samples;Min_cycle;Max_cycle;Signal;HPM_P1;HPM_P2
2023/10/28 00:01:12;;;;;;;2.03;1.73;;;;;;;;;;5092659;28;21000;-75
2023/10/28 00:03:39;;;;;;;3.30;2.00;;;;;;;;;;5096403;28;20465;-75
2023/10/28 00:06:08;;;;;;;2.80;2.23;;;;;;;;;;5096240;28;20458;-75
2023/10/28 00:08:36;;;;;;;3.87;2.30;;;;;;;;;;5096450;28;20867;-74
2023/10/28 00:11:04;;;;;;;4.97;2.57;;;;;;;;;;5096161;28;20466;-75
2023/10/28 00:13:31;;;;;;;2.83;2.17;;;;;;;;;;5095926;28;20511;-74
2023/10/28 00:15:58;;;;;;;4.67;2.00;;;;;;;;;;5096290;28;21021;-75
2023/10/28 00:18:25;;;;;;;2.50;2.00;;;;;;;;;;5096632;28;20910;-75
2023/10/28 00:20:53;;;;;;;3.30;2.43;;;;;;;;;;5096743;28;20487;-75
2023/10/28 00:23:25;;;;;;;2.40;1.90;;;;;;;;;;5095865;28;20455;-75
2023/10/28 00:25:52;;;;;;;3.40;2.10;;;;;;;;;;5096137;28;20469;-75
2023/10/28 00:28:20;;;;;;;2.47;2.27;;;;;;;;;;5095657;28;20483;-75
2023/10/28 00:30:47;;;;;;;2.60;2.30;;;;;;;;;;5095755;28;20455;-75
2023/10/28 00:33:15;;;;;;;7.03;2.50;;;;;;;;;;5095578;28;20546;-75
2023/10/28 00:35:43;;;;;;;2.50;2.30;;;;;;;;;;5095781;28;20975;-75
2023/10/28 00:38:11;;;;;;;2.93;2.27;;;;;;;;;;5095493;28;20490;-75
2023/10/28 00:40:40;;;;;;;2.50;2.03;;;;;;;;;;5095921;28;20507;-75
2023/10/28 00:43:10;;;;;;;2.30;2.07;;;;;;;;;;5096096;28;20475;-76
2023/10/28 00:45:37;;;;;;;2.40;2.07;;;;;;;;;;5100058;28;20447;-75
2023/10/28 00:48:05;;;;;;;3.10;2.00;;;;;;;;;;5099643;28;20451;-75
2023/10/28 00:50:32;;;;;;;2.53;2.23;;;;;;;;;;5096304;28;20458;-75
2023/10/28 00:53:02;;;;;;;5.83;2.27;;;;;;;;;;5087875;28;20537;-75
2023/10/28 00:55:30;;;;;;;2.60;2.33;;;;;;;;;;5096215;28;20479;-75
2023/10/28 00:58:00;;;;;;;1.87;1.67;;;;;;;;;;5096306;28;20512;-75
2023/10/28 01:00:29;;;;;;;2.23;1.80;;;;;;;;;;5095960;28;20446;-74
2023/10/28 01:02:56;;;;;;;2.70;2.07;;;;;;;;;;5096939;28;20475;-74
2023/10/28 01:05:24;;;;;;;2.77;1.80;;;;;;;;;;5098958;28;20447;-74
2023/10/28 01:07:52;;;;;;;2.00;1.50;;;;;;;;;;5097047;28;20455;-76
2023/10/28 01:10:27;;;;;;;3.03;1.93;;;;;;;;;;5096132;28;20455;-75
2023/10/28 01:12:55;;;;;;;6.27;1.90;;;;;;;;;;5095322;28;20466;-76
2023/10/28 01:15:24;;;;;;;2.00;1.57;;;;;;;;;;5095935;28;20462;-75
2023/10/28 01:17:51;;;;;;;3.37;1.87;;;;;;;;;;5095251;28;20469;-76
2023/10/28 01:20:18;;;;;;;4.17;1.77;;;;;;;;;;5095536;28;20490;-75
2023/10/28 01:22:47;;;;;;;2.47;1.87;;;;;;;;;;5095096;28;20471;-75
2023/10/28 01:25:15;;;;;;;1.77;1.40;;;;;;;;;;5095211;28;20450;-75
2023/10/28 01:27:43;;;;;;;1.50;1.23;;;;;;;;;;5095042;28;20470;-75
2023/10/28 01:30:14;;;;;;;2.33;1.50;;;;;;;;;;5095335;28;20462;-75
2023/10/28 01:32:41;;;;;;;2.17;1.30;;;;;;;;;;5095097;28;20892;-76
2023/10/28 01:35:10;;;;;;;3.57;1.40;;;;;;;;;;5096142;28;20438;-75
2023/10/28 01:37:38;;;;;;;1.90;1.50;;;;;;;;;;5095724;28;20484;-74
2023/10/28 01:40:12;;;;;;;1.60;1.30;;;;;;;;;;5093999;28;20491;-74
2023/10/28 01:42:40;;;;;;;3.80;3.10;;;;;;;;;;5094069;28;20475;-74
2023/10/28 01:45:09;;;;;;;8.83;3.90;;;;;;;;;;5094017;28;20454;-73
2023/10/28 01:47:36;;;;;;;4.00;3.00;;;;;;;;;;5093923;28;20462;-74
2023/10/28 01:50:03;;;;;;;2.53;2.33;;;;;;;;;;5093796;28;20550;-74
2023/10/28 01:52:31;;;;;;;2.50;1.60;;;;;;;;;;5094136;28;21012;-74
2023/10/28 01:54:58;;;;;;;2.00;1.80;;;;;;;;;;5094231;28;20945;-74
2023/10/28 01:57:26;;;;;;;2.20;1.43;;;;;;;;;;5093837;28;20453;-74
2023/10/28 01:59:53;;;;;;;4.23;1.20;;;;;;;;;;5093453;28;20490;-74
2023/10/28 02:02:20;;;;;;;2.03;1.47;;;;;;;;;;5093515;28;20481;-74
2023/10/28 02:04:48;;;;;;;1.60;1.40;;;;;;;;;;5093791;28;20553;-74
2023/10/28 02:07:15;;;;;;;2.33;1.60;;;;;;;;;;5093629;28;20455;-74
2023/10/28 02:09:42;;;;;;;9.73;2.47;;;;;;;;;;5093536;28;20454;-74
2023/10/28 02:12:10;;;;;;;1.90;1.43;;;;;;;;;;5093497;28;20540;-74
2023/10/28 02:14:40;;;;;;;1.70;1.40;;;;;;;;;;5093444;28;20462;-74
2023/10/28 02:17:09;;;;;;;1.87;1.30;;;;;;;;;;5093531;28;20466;-74
2023/10/28 02:19:37;;;;;;;2.87;1.60;;;;;;;;;;5093294;28;20490;-74
2023/10/28 02:22:04;;;;;;;1.80;1.37;;;;;;;;;;5093539;28;20466;-73
2023/10/28 02:24:31;;;;;;;5.47;1.37;;;;;;;;;;5092908;28;20443;-74
2023/10/28 02:26:58;;;;;;;1.87;1.40;;;;;;;;;;5093282;28;20439;-74
2023/10/28 02:29:25;;;;;;;2.30;1.67;;;;;;;;;;5093054;28;20457;-74
2023/10/28 02:31:54;;;;;;;2.80;1.63;;;;;;;;;;5093140;28;20471;-74
2023/10/28 02:34:21;;;;;;;3.60;1.73;;;;;;;;;;5093118;28;20461;-75
2023/10/28 02:36:48;;;;;;;1.70;1.33;;;;;;;;;;5093253;28;20465;-74
2023/10/28 02:39:16;;;;;;;3.30;1.20;;;;;;;;;;5092898;28;20537;-74
2023/10/28 02:41:43;;;;;;;1.87;1.30;;;;;;;;;;5093061;28;20483;-74
2023/10/28 02:44:11;;;;;;;1.60;1.17;;;;;;;;;;5093082;28;20458;-74
2023/10/28 02:46:38;;;;;;;2.00;1.30;;;;;;;;;;5093149;28;20451;-74
2023/10/28 02:49:07;;;;;;;1.33;1.03;;;;;;;;;;5092908;28;20482;-74
2023/10/28 02:51:34;;;;;;;1.77;1.20;;;;;;;;;;5093024;28;20489;-73
2023/10/28 02:54:01;;;;;;;5.43;1.50;;;;;;;;;;5092816;28;20554;-74
2023/10/28 02:56:28;;;;;;;1.60;1.20;;;;;;;;;;5093011;28;20457;-74
2023/10/28 02:58:56;;;;;;;3.00;1.70;;;;;;;;;;5092824;28;20573;-73
2023/10/28 03:01:23;;;;;;;1.50;1.20;;;;;;;;;;5092835;28;21023;-74
2023/10/28 03:03:50;;;;;;;1.63;1.30;;;;;;;;;;5092936;28;21004;-74
2023/10/28 03:06:19;;;;;;;2.40;1.20;;;;;;;;;;5092739;28;20504;-74
2023/10/28 03:08:46;;;;;;;1.37;1.20;;;;;;;;;;5092511;28;20450;-74
2023/10/28 03:11:13;;;;;;;1.40;1.10;;;;;;;;;;5092763;28;20471;-74
2023/10/28 03:13:40;;;;;;;1.53;1.13;;;;;;;;;;5092700;28;20529;-74
2023/10/28 03:16:08;;;;;;;1.70;1.20;;;;;;;;;;5092951;28;20478;-74
2023/10/28 03:18:35;;;;;;;1.80;1.17;;;;;;;;;;5092344;28;20462;-73
2023/10/28 03:21:02;;;;;;;1.50;1.20;;;;;;;;;;5092741;28;20578;-74
2023/10/28 03:23:31;;;;;;;1.97;1.23;;;;;;;;;;5092558;28;20447;-74
2023/10/28 03:25:59;;;;;;;2.07;1.40;;;;;;;;;;5092605;28;20463;-74
2023/10/28 03:28:28;;;;;;;1.70;1.60;;;;;;;;;;5092644;28;20454;-74
2023/10/28 03:30:55;;;;;;;2.50;1.40;;;;;;;;;;5092432;28;20467;-74
2023/10/28 03:33:23;;;;;;;2.00;1.57;;;;;;;;;;5092535;28;20450;-74
2023/10/28 03:35:50;;;;;;;2.63;1.40;;;;;;;;;;5092482;28;20455;-74
2023/10/28 03:38:17;;;;;;;1.50;1.30;;;;;;;;;;5095776;28;20463;-74
2023/10/28 03:40:46;;;;;;;3.30;3.00;;;;;;;;;;5096151;28;20868;-74
2023/10/28 03:43:13;;;;;;;1.30;1.00;;;;;;;;;;5096451;28;20497;-75
2023/10/28 03:45:40;;;;;;;1.10;0.80;;;;;;;;;;5096300;28;20454;-75
2023/10/28 03:48:08;;;;;;;1.40;1.00;;;;;;;;;;5096409;28;20454;-74
2023/10/28 03:50:35;;;;;;;2.23;1.10;;;;;;;;;;5095971;28;20477;-74
2023/10/28 03:53:02;;;;;;;2.03;1.20;;;;;;;;;;5096222;28;20514;-74
2023/10/28 03:55:29;;;;;;;2.13;1.20;;;;;;;;;;5096111;28;20537;-74
2023/10/28 03:57:58;;;;;;;1.70;1.10;;;;;;;;;;5096133;28;20982;-74
2023/10/28 04:00:25;;;;;;;1.87;1.07;;;;;;;;;;5095998;28;20987;-76
2023/10/28 04:02:52;;;;;;;1.80;1.30;;;;;;;;;;5095847;28;20564;-75
2023/10/28 04:05:19;;;;;;;1.43;1.07;;;;;;;;;;5095960;28;20461;-75
2023/10/28 04:07:47;;;;;;;1.97;1.00;;;;;;;;;;5095850;28;20541;-76
2023/10/28 04:10:14;;;;;;;3.07;1.40;;;;;;;;;;5095803;28;20542;-75
2023/10/28 04:12:41;;;;;;;1.37;0.97;;;;;;;;;;5095768;28;20825;-75
2023/10/28 04:15:13;;;;;;;3.43;1.50;;;;;;;;;;5095848;28;20468;-76
2023/10/28 04:17:40;;;;;;;1.20;1.00;;;;;;;;;;5095633;28;20545;-75
2023/10/28 04:20:08;;;;;;;2.47;1.20;;;;;;;;;;5095550;28;20490;-75
2023/10/28 04:22:36;;;;;;;2.50;1.23;;;;;;;;;;5095536;28;21046;-75
2023/10/28 04:25:03;;;;;;;3.00;1.77;;;;;;;;;;5095655;28;20454;-75
2023/10/28 04:27:30;;;;;;;6.17;1.93;;;;;;;;;;5095635;28;20453;-75
2023/10/28 04:29:57;;;;;;;1.70;1.20;;;;;;;;;;5095201;28;20447;-75
2023/10/28 04:32:27;;;;;;;1.87;1.10;;;;;;;;;;5095342;28;20562;-75
2023/10/28 04:34:54;;;;;;;1.70;1.30;;;;;;;;;;5095407;28;20504;-75
2023/10/28 04:37:22;;;;;;;2.57;1.30;;;;;;;;;;5095266;28;20490;-75
2023/10/28 04:39:51;;;;;;;1.63;1.23;;;;;;;;;;5095103;28;20497;-75
2023/10/28 04:42:19;;;;;;;2.30;1.37;;;;;;;;;;5095140;28;20485;-75
2023/10/28 04:44:46;;;;;;;3.30;1.37;;;;;;;;;;5095378;28;20461;-75
2023/10/28 04:47:13;;;;;;;2.90;1.13;;;;;;;;;;5094894;28;20960;-75
2023/10/28 04:49:42;;;;;;;2.63;1.40;;;;;;;;;;5094934;28;20447;-75
2023/10/28 04:52:09;;;;;;;4.40;1.30;;;;;;;;;;5095090;28;20475;-75
2023/10/28 04:54:37;;;;;;;3.87;1.83;;;;;;;;;;5094933;28;20545;-75
2023/10/28 04:57:05;;;;;;;2.87;1.80;;;;;;;;;;5094993;28;20453;-75
2023/10/28 04:59:32;;;;;;;3.43;2.00;;;;;;;;;;5094564;28;20501;-75
2023/10/28 05:02:00;;;;;;;2.73;2.33;;;;;;;;;;5086540;28;20825;-75
2023/10/28 05:04:27;;;;;;;3.47;1.90;;;;;;;;;;5094798;28;20470;-75
2023/10/28 05:06:56;;;;;;;4.77;2.20;;;;;;;;;;5094798;28;20528;-75
2023/10/28 05:09:23;;;;;;;5.60;2.40;;;;;;;;;;5094666;28;20447;-75
2023/10/28 05:11:53;;;;;;;2.23;1.30;;;;;;;;;;5094658;28;20462;-75
2023/10/28 05:14:21;;;;;;;2.40;1.30;;;;;;;;;;5095090;28;20853;-75
2023/10/28 05:16:48;;;;;;;3.90;1.50;;;;;;;;;;5094739;28;20504;-75
2023/10/28 05:19:15;;;;;;;3.20;1.60;;;;;;;;;;5094644;28;20549;-75
2023/10/28 05:21:42;;;;;;;2.80;2.20;;;;;;;;;;5094452;28;20558;-76
2023/10/28 05:24:11;;;;;;;2.50;1.83;;;;;;;;;;5094585;28;20450;-75
2023/10/28 05:26:38;;;;;;;2.43;2.20;;;;;;;;;;5095125;28;20494;-75
2023/10/28 05:29:06;;;;;;;2.80;2.03;;;;;;;;;;5095228;28;20459;-75
2023/10/28 05:31:33;;;;;;;3.33;1.20;;;;;;;;;;5094983;28;20492;-75
2023/10/28 05:34:01;;;;;;;2.20;1.70;;;;;;;;;;5094922;28;20469;-75
2023/10/28 05:36:28;;;;;;;1.67;1.30;;;;;;;;;;5094843;28;20451;-75
2023/10/28 05:38:55;;;;;;;1.70;1.40;;;;;;;;;;5094902;28;20454;-75
2023/10/28 05:41:24;;;;;;;3.73;1.50;;;;;;;;;;5094622;28;20865;-75
2023/10/28 05:43:51;;;;;;;2.00;1.70;;;;;;;;;;5094515;28;20446;-75
2023/10/28 05:46:22;;;;;;;2.13;1.70;;;;;;;;;;5094305;28;20457;-75
2023/10/28 05:48:50;;;;;;;1.93;1.63;;;;;;;;;;5094043;28;20520;-75
2023/10/28 05:51:17;;;;;;;3.73;1.63;;;;;;;;;;5093688;28;20498;-75
2023/10/28 05:53:44;;;;;;;2.90;1.30;;;;;;;;;;5093397;28;20546;-75
2023/10/28 05:56:12;;;;;;;2.53;1.20;;;;;;;;;;5093014;28;20435;-75
2023/10/28 05:58:40;;;;;;;2.43;1.70;;;;;;;;;;5093121;28;20560;-75
2023/10/28 06:01:07;;;;;;;1.70;1.33;;;;;;;;;;5092367;28;20992;-75
2023/10/28 06:03:34;;;;;;;1.20;0.90;;;;;;;;;;5092623;28;20442;-75
2023/10/28 06:06:02;;;;;;;2.70;1.80;;;;;;;;;;5092542;28;20454;-75
2023/10/28 06:08:29;;;;;;;4.47;3.20;;;;;;;;;;5092890;28;20446;-75
2023/10/28 06:10:56;;;;;;;4.30;2.10;;;;;;;;;;5092463;28;20517;-75
2023/10/28 06:13:25;;;;;;;3.30;2.37;;;;;;;;;;5092767;28;20455;-75
2023/10/28 06:15:53;;;;;;;5.27;3.97;;;;;;;;;;5092755;28;20865;-75
2023/10/28 06:18:20;;;;;;;6.07;4.50;;;;;;;;;;5092860;28;20461;-75
2023/10/28 06:20:47;;;;;;;4.77;2.60;;;;;;;;;;5092317;28;20577;-75
2023/10/28 06:23:15;;;;;;;3.67;2.10;;;;;;;;;;5092385;28;20451;-75
2023/10/28 06:25:42;;;;;;;4.90;1.90;;;;;;;;;;5092713;28;20991;-75
2023/10/28 06:28:10;;;;;;;1.77;1.47;;;;;;;;;;5092337;28;20462;-75
2023/10/28 06:30:37;;;;;;;3.00;2.53;;;;;;;;;;5092296;28;20451;-76
2023/10/28 06:33:06;;;;;;;5.30;2.10;;;;;;;;;;5092463;28;20627;-75
2023/10/28 06:35:33;;;;;;;3.77;1.20;;;;;;;;;;5092926;28;20449;-75
2023/10/28 06:38:00;;;;;;;2.13;1.20;;;;;;;;;;5092456;28;20439;-75
2023/10/28 06:40:28;;;;;;;2.13;1.10;;;;;;;;;;5092344;28;20581;-75
2023/10/28 06:42:56;;;;;;;5.33;3.73;;;;;;;;;;5093702;28;20482;-75
2023/10/28 06:45:23;;;;;;;3.10;1.50;;;;;;;;;;5094565;28;20451;-75
2023/10/28 06:47:51;;;;;;;2.53;1.63;;;;;;;;;;5092361;28;20474;-75
2023/10/28 06:50:20;;;;;;;1.53;1.10;;;;;;;;;;5092204;28;20485;-75
2023/10/28 06:52:48;;;;;;;1.70;1.10;;;;;;;;;;5092335;28;20470;-75
2023/10/28 06:55:15;;;;;;;1.80;1.33;;;;;;;;;;5091983;28;20844;-75
2023/10/28 06:57:43;;;;;;;2.13;1.40;;;;;;;;;;5092218;28;20461;-75
2023/10/28 07:00:13;;;;;;;2.33;1.53;;;;;;;;;;5091733;28;20585;-75
2023/10/28 07:02:41;;;;;;;4.13;2.53;;;;;;;;;;5091832;28;20505;-75
2023/10/28 07:05:09;;;;;;;3.50;2.27;;;;;;;;;;5092105;28;20443;-75
2023/10/28 07:07:37;;;;;;;3.10;2.00;;;;;;;;;;5091859;28;20458;-75
2023/10/28 07:10:05;;;;;;;2.93;1.70;;;;;;;;;;5091834;28;20451;-75
2023/10/28 07:12:32;;;;;;;1.80;1.43;;;;;;;;;;5095935;28;20927;-75
2023/10/28 07:14:59;;;;;;;5.73;3.00;;;;;;;;;;5096226;28;20537;-75
2023/10/28 07:17:27;;;;;;;3.30;1.80;;;;;;;;;;5095985;28;20925;-75
2023/10/28 07:19:54;;;;;;;2.30;1.57;;;;;;;;;;5095980;28;20449;-75
2023/10/28 07:22:22;;;;;;;1.60;1.10;;;;;;;;;;5095571;28;20478;-75
2023/10/28 07:24:53;;;;;;;5.70;1.40;;;;;;;;;;5095880;28;20624;-75
2023/10/28 07:27:20;;;;;;;2.63;1.50;;;;;;;;;;5096123;28;20519;-75
2023/10/28 07:29:48;;;;;;;2.10;1.40;;;;;;;;;;5095659;28;20454;-75
2023/10/28 07:32:15;;;;;;;2.00;1.63;;;;;;;;;;5095890;28;20466;-75
2023/10/28 07:34:42;;;;;;;2.27;1.20;;;;;;;;;;5096157;28;20446;-75
2023/10/28 07:37:09;;;;;;;1.40;1.07;;;;;;;;;;5095929;28;20456;-75
2023/10/28 07:39:38;;;;;;;4.10;1.53;;;;;;;;;;5095391;28;20455;-75
2023/10/28 07:42:07;;;;;;;2.67;1.53;;;;;;;;;;5095500;28;20485;-75
2023/10/28 07:44:34;;;;;;;3.43;1.90;;;;;;;;;;5095545;28;20453;-75
2023/10/28 07:47:01;;;;;;;2.10;1.80;;;;;;;;;;5095738;28;20439;-75
2023/10/28 07:49:28;;;;;;;2.20;1.40;;;;;;;;;;5095287;28;20450;-76
2023/10/28 07:51:56;;;;;;;2.20;1.60;;;;;;;;;;5095130;28;20470;-76
2023/10/28 07:54:23;;;;;;;1.67;1.27;;;;;;;;;;5095441;28;20899;-76
2023/10/28 07:56:51;;;;;;;1.80;1.40;;;;;;;;;;5095551;28;20473;-75
2023/10/28 07:59:21;;;;;;;1.50;1.20;;;;;;;;;;5093701;28;20540;-76
2023/10/28 08:01:48;;;;;;;1.60;1.00;;;;;;;;;;5094090;28;21012;-76
2023/10/28 08:04:15;;;;;;;1.60;1.17;;;;;;;;;;5093801;28;20476;-76
2023/10/28 08:06:43;;;;;;;1.50;1.10;;;;;;;;;;5094007;28;20487;-76
2023/10/28 08:09:10;;;;;;;1.50;1.00;;;;;;;;;;5093966;28;20457;-75
2023/10/28 08:11:37;;;;;;;1.20;1.00;;;;;;;;;;5094248;28;20489;-76
2023/10/28 08:14:05;;;;;;;2.37;1.30;;;;;;;;;;5094317;28;20466;-76
2023/10/28 08:16:35;;;;;;;2.90;1.33;;;;;;;;;;5094418;28;20795;-76
2023/10/28 08:19:03;;;;;;;1.30;1.03;;;;;;;;;;5093632;28;20485;-76
2023/10/28 08:21:30;;;;;;;2.00;1.03;;;;;;;;;;5093991;28;20520;-76
2023/10/28 08:23:57;;;;;;;2.47;2.00;;;;;;;;;;5092964;28;20454;-76
2023/10/28 08:26:26;;;;;;;1.70;1.40;;;;;;;;;;5093609;28;20489;-75
2023/10/28 08:28:53;;;;;;;2.60;1.23;;;;;;;;;;5093779;28;20549;-76
2023/10/28 08:31:21;;;;;;;1.27;0.93;;;;;;;;;;5094104;28;20481;-76
2023/10/28 08:33:52;;;;;;;1.30;1.00;;;;;;;;;;5093785;28;20489;-76
2023/10/28 08:36:19;;;;;;;1.40;0.90;;;;;;;;;;5093761;28;20439;-77
2023/10/28 08:38:47;;;;;;;1.80;1.30;;;;;;;;;;5093458;28;20455;-76
2023/10/28 08:41:16;;;;;;;4.57;1.90;;;;;;;;;;5093767;28;20980;-76
2023/10/28 08:43:45;;;;;;;1.47;1.20;;;;;;;;;;5093446;28;20450;-76
2023/10/28 08:46:13;;;;;;;1.53;1.10;;;;;;;;;;5093437;28;20853;-76
2023/10/28 08:48:42;;;;;;;4.67;1.67;;;;;;;;;;5093735;28;20448;-75
2023/10/28 08:51:12;;;;;;;1.77;1.30;;;;;;;;;;5093237;28;20495;-76
2023/10/28 08:53:39;;;;;;;2.50;1.67;;;;;;;;;;5093157;28;20812;-76
2023/10/28 08:56:07;;;;;;;2.30;1.87;;;;;;;;;;5093305;28;20963;-76
2023/10/28 08:58:37;;;;;;;4.00;1.60;;;;;;;;;;5092703;28;20555;-76
2023/10/28 09:01:05;;;;;;;1.50;1.30;;;;;;;;;;5093072;28;20501;-76
2023/10/28 09:03:33;;;;;;;3.10;1.63;;;;;;;;;;5093309;28;20504;-76
2023/10/28 09:06:04;;;;;;;2.03;1.53;;;;;;;;;;5093224;28;20458;-76
2023/10/28 09:08:32;;;;;;;2.27;2.07;;;;;;;;;;5092935;28;20499;-76
2023/10/28 09:11:01;;;;;;;3.00;2.30;;;;;;;;;;5092799;28;20451;-76
2023/10/28 09:13:28;;;;;;;1.80;1.30;;;;;;;;;;5093075;28;20993;-76
2023/10/28 09:15:55;;;;;;;1.60;1.10;;;;;;;;;;5092971;28;20461;-76
2023/10/28 09:18:22;;;;;;;1.83;1.20;;;;;;;;;;5092901;28;20936;-76
2023/10/28 09:20:50;;;;;;;3.00;1.97;;;;;;;;;;5092598;28;20493;-76
2023/10/28 09:23:17;;;;;;;1.80;1.40;;;;;;;;;;5093000;28;20459;-76
2023/10/28 09:25:45;;;;;;;1.90;1.37;;;;;;;;;;5092412;28;20508;-76
2023/10/28 09:28:16;;;;;;;2.47;1.50;;;;;;;;;;5092766;28;20535;-74
2023/10/28 09:30:47;;;;;;;2.37;1.63;;;;;;;;;;5091940;28;20462;-75
2023/10/28 09:33:17;;;;;;;1.37;1.00;;;;;;;;;;5092712;28;20523;-75
2023/10/28 09:35:45;;;;;;;1.60;1.17;;;;;;;;;;5091365;28;20438;-75
2023/10/28 09:38:12;;;;;;;1.93;1.13;;;;;;;;;;5092179;28;20474;-75
2023/10/28 09:40:40;;;;;;;1.70;1.10;;;;;;;;;;5092156;28;20541;-75
2023/10/28 09:43:09;;;;;;;2.43;1.40;;;;;;;;;;5092170;28;20584;-75
2023/10/28 09:45:36;;;;;;;2.97;2.00;;;;;;;;;;5092280;28;21021;-75
2023/10/28 09:48:06;;;;;;;2.83;2.00;;;;;;;;;;5092014;28;20439;-76
2023/10/28 09:50:38;;;;;;;1.50;1.33;;;;;;;;;;5091805;28;20908;-75
2023/10/28 09:53:05;;;;;;;2.00;1.23;;;;;;;;;;5092281;28;21015;-76
2023/10/28 09:55:35;;;;;;;2.40;1.50;;;;;;;;;;5091926;28;21018;-75
2023/10/28 09:58:07;;;;;;;2.83;1.40;;;;;;;;;;5092864;28;20784;-75
2023/10/28 10:00:37;;;;;;;3.40;1.60;;;;;;;;;;5093540;28;20440;-76
2023/10/28 10:03:09;;;;;;;3.67;1.77;;;;;;;;;;5092892;28;20813;-76
2023/10/28 10:05:40;;;;;;;2.70;1.93;;;;;;;;;;5093607;28;20508;-76
2023/10/28 10:08:18;;;;;;;4.70;1.70;;;;;;;;;;5092829;28;20518;-76
2023/10/28 10:10:46;;;;;;;2.17;1.70;;;;;;;;;;5092914;28;20917;-76
2023/10/28 10:13:15;;;;;;;2.50;1.80;;;;;;;;;;5093724;28;20933;-76
2023/10/28 10:15:45;;;;;;;2.00;1.70;;;;;;;;;;5093141;28;20462;-77
2023/10/28 10:18:12;;;;;;;2.60;1.40;;;;;;;;;;5093202;28;20462;-76
2023/10/28 10:20:44;;;;;;;1.60;1.20;;;;;;;;;;5092797;28;20455;-76
2023/10/28 10:23:11;;;;;;;3.23;1.50;;;;;;;;;;5093018;28;20423;-76
2023/10/28 10:25:43;;;;;;;2.13;1.47;;;;;;;;;;5092671;28;20454;-76
2023/10/28 10:28:15;;;;;;;2.33;1.17;;;;;;;;;;5092987;28;20439;-76
2023/10/28 10:30:44;;;;;;;1.90;1.27;;;;;;;;;;5092693;28;20458;-76
2023/10/28 10:33:11;;;;;;;3.00;1.43;;;;;;;;;;5092576;28;20469;-76
2023/10/28 10:35:38;;;;;;;1.63;1.27;;;;;;;;;;5092984;28;20434;-76
2023/10/28 10:38:06;;;;;;;2.07;1.20;;;;;;;;;;5092494;28;20447;-76
2023/10/28 10:40:34;;;;;;;1.60;1.00;;;;;;;;;;5092878;28;20469;-76
2023/10/28 10:43:08;;;;;;;2.40;1.43;;;;;;;;;;5092489;28;20585;-75
2023/10/28 10:45:35;;;;;;;2.67;1.30;;;;;;;;;;5092452;28;20447;-76
2023/10/28 10:48:06;;;;;;;2.60;1.37;;;;;;;;;;5092366;28;20446;-76
2023/10/28 10:50:33;;;;;;;1.97;1.20;;;;;;;;;;5092379;28;20439;-76
2023/10/28 10:53:03;;;;;;;4.03;1.47;;;;;;;;;;5092461;28;20470;-75
2023/10/28 10:55:31;;;;;;;2.33;1.40;;;;;;;;;;5092117;28;20469;-76
2023/10/28 10:57:59;;;;;;;1.70;1.20;;;;;;;;;;5092840;28;20536;-76
2023/10/28 11:00:27;;;;;;;2.83;1.23;;;;;;;;;;5092418;28;20520;-75
2023/10/28 11:02:57;;;;;;;1.53;1.10;;;;;;;;;;5092068;28;20547;-76
2023/10/28 11:05:29;;;;;;;1.90;1.17;;;;;;;;;;5092094;28;20447;-75
2023/10/28 11:07:56;;;;;;;1.50;1.10;;;;;;;;;;5092776;28;20435;-76
2023/10/28 11:10:23;;;;;;;2.60;1.00;;;;;;;;;;5092418;28;20967;-76
2023/10/28 11:12:52;;;;;;;4.07;1.20;;;;;;;;;;5092541;28;20987;-76
2023/10/28 11:15:21;;;;;;;1.60;1.20;;;;;;;;;;5092372;28;20826;-76
2023/10/28 11:17:50;;;;;;;2.33;1.27;;;;;;;;;;5092061;28;20508;-76
2023/10/28 11:20:19;;;;;;;3.50;1.10;;;;;;;;;;5092722;28;20455;-75
2023/10/28 11:22:47;;;;;;;1.53;1.17;;;;;;;;;;5092377;28;20490;-77
2023/10/28 11:25:15;;;;;;;2.07;1.30;;;;;;;;;;5092412;28;20829;-76
2023/10/28 11:27:42;;;;;;;2.37;1.20;;;;;;;;;;5092534;28;20954;-76
2023/10/28 11:30:10;;;;;;;3.13;1.80;;;;;;;;;;5092067;28;20453;-76
2023/10/28 11:32:41;;;;;;;2.33;1.80;;;;;;;;;;5092101;28;20466;-76
2023/10/28 11:35:11;;;;;;;4.00;2.20;;;;;;;;;;5092427;28;20446;-76
2023/10/28 11:37:39;;;;;;;2.00;1.37;;;;;;;;;;5092853;28;20841;-76
2023/10/28 11:40:10;;;;;;;2.80;1.10;;;;;;;;;;5092583;28;20916;-76
2023/10/28 11:42:38;;;;;;;2.37;1.20;;;;;;;;;;5092626;27;20601;-76
2023/10/28 11:45:07;;;;;;;3.80;2.00;;;;;;;;;;5091851;28;20641;-75
2023/10/28 11:47:35;;;;;;;4.17;3.20;;;;;;;;;;5092081;28;20456;-75
2023/10/28 11:50:02;;;;;;;3.73;1.60;;;;;;;;;;5071426;28;20456;-75
2023/10/28 11:52:29;;;;;;;1.60;1.20;;;;;;;;;;5071803;28;20483;-75
2023/10/28 11:54:56;;;;;;;1.50;1.20;;;;;;;;;;5071197;28;20479;-75
2023/10/28 11:57:25;;;;;;;1.53;1.20;;;;;;;;;;5072070;28;20477;-76
2023/10/28 11:59:52;;;;;;;2.27;1.63;;;;;;;;;;5094078;28;20457;-77
2023/10/28 12:02:20;;;;;;;5.17;1.67;;;;;;;;;;5095463;28;20497;-76
2023/10/28 12:04:47;;;;;;;2.13;1.00;;;;;;;;;;5095160;28;20451;-75
2023/10/28 12:07:14;;;;;;;1.67;0.90;;;;;;;;;;5095422;28;20450;-75
2023/10/28 12:09:41;;;;;;;2.10;1.13;;;;;;;;;;5095300;28;20974;-75
2023/10/28 12:12:09;;;;;;;1.73;1.27;;;;;;;;;;5095275;28;20808;-76
2023/10/28 12:14:38;;;;;;;2.13;1.20;;;;;;;;;;5094946;28;20457;-76
2023/10/28 12:17:06;;;;;;;2.50;1.30;;;;;;;;;;5094851;28;20542;-75
2023/10/28 12:19:33;;;;;;;3.43;1.93;;;;;;;;;;5095281;28;20454;-76
2023/10/28 12:22:00;;;;;;;5.33;3.53;;;;;;;;;;5094863;28;20490;-74
2023/10/28 12:24:27;;;;;;;3.53;2.83;;;;;;;;;;5095114;28;20879;-74
2023/10/28 12:26:56;;;;;;;9.63;1.93;;;;;;;;;;5095133;28;20936;-75
2023/10/28 12:29:23;;;;;;;5.23;1.40;;;;;;;;;;5095556;28;20446;-74
2023/10/28 12:31:53;;;;;;;1.83;1.50;;;;;;;;;;5095221;28;20542;-75
2023/10/28 12:34:20;;;;;;;2.13;1.43;;;;;;;;;;5094986;28;20867;-74
2023/10/28 12:36:48;;;;;;;5.30;1.30;;;;;;;;;;5094526;28;20450;-74
2023/10/28 12:39:16;;;;;;;2.90;1.50;;;;;;;;;;5094998;28;20932;-75
2023/10/28 12:41:43;;;;;;;10.63;3.10;;;;;;;;;;5094339;28;20463;-75
2023/10/28 12:44:10;;;;;;;3.10;1.97;;;;;;;;;;5094305;28;20439;-75
2023/10/28 12:46:37;;;;;;;3.30;1.43;;;;;;;;;;5094530;28;20831;-74
2023/10/28 12:49:06;;;;;;;2.20;1.30;;;;;;;;;;5094238;28;20564;-74
2023/10/28 12:51:34;;;;;;;2.60;1.33;;;;;;;;;;5094629;28;20478;-74
2023/10/28 12:54:04;;;;;;;4.90;1.60;;;;;;;;;;5094266;28;20458;-74
2023/10/28 12:56:32;;;;;;;2.90;1.47;;;;;;;;;;5094387;28;20481;-75
2023/10/28 12:59:02;;;;;;;4.20;1.20;;;;;;;;;;5094324;28;20461;-75
2023/10/28 13:01:31;;;;;;;3.53;2.30;;;;;;;;;;5094211;28;20471;-74
2023/10/28 13:03:58;;;;;;;3.30;1.20;;;;;;;;;;5094445;28;20431;-74
2023/10/28 13:06:29;;;;;;;2.00;1.30;;;;;;;;;;5094066;28;20525;-74
2023/10/28 13:08:56;;;;;;;1.97;1.20;;;;;;;;;;5095209;28;20454;-76
2023/10/28 13:11:24;;;;;;;3.30;1.70;;;;;;;;;;5094613;28;20502;-75
2023/10/28 13:13:51;;;;;;;1.60;1.20;;;;;;;;;;5089378;28;20911;-75
2023/10/28 13:16:18;;;;;;;6.17;2.30;;;;;;;;;;5092849;28;20599;-74
2023/10/28 13:18:45;;;;;;;3.80;2.60;;;;;;;;;;5092221;28;20451;-74
2023/10/28 13:21:15;;;;;;;5.00;2.70;;;;;;;;;;5093730;28;20471;-73
2023/10/28 13:23:43;;;;;;;13.83;3.50;;;;;;;;;;5093416;28;20524;-75
2023/10/28 13:26:12;;;;;;;3.60;2.00;;;;;;;;;;5093492;28;20455;-75
2023/10/28 13:28:40;;;;;;;6.03;1.73;;;;;;;;;;5093572;28;20504;-75
2023/10/28 13:31:07;;;;;;;6.73;2.97;;;;;;;;;;5093363;28;20471;-76
2023/10/28 13:33:35;;;;;;;2.20;1.40;;;;;;;;;;5092487;28;20526;-74
2023/10/28 13:36:03;;;;;;;4.17;2.13;;;;;;;;;;5093809;28;20450;-76
2023/10/28 13:38:30;;;;;;;4.23;1.43;;;;;;;;;;5093745;28;20455;-74
2023/10/28 13:40:59;;;;;;;2.47;1.30;;;;;;;;;;5093690;28;20819;-75
2023/10/28 13:43:26;;;;;;;2.03;1.63;;;;;;;;;;5091925;28;20617;-75
2023/10/28 13:45:53;;;;;;;3.70;1.57;;;;;;;;;;5091464;28;20472;-75
2023/10/28 13:48:20;;;;;;;2.33;1.20;;;;;;;;;;5093322;28;20455;-75
2023/10/28 13:50:48;;;;;;;2.13;1.13;;;;;;;;;;5091315;28;20454;-75
2023/10/28 13:53:15;;;;;;;4.27;1.20;;;;;;;;;;5091486;28;20534;-75
2023/10/28 13:55:42;;;;;;;4.13;1.57;;;;;;;;;;5091725;28;20458;-75
2023/10/28 13:58:10;;;;;;;2.17;1.10;;;;;;;;;;5092055;28;20467;-74
2023/10/28 14:00:38;;;;;;;4.33;1.40;;;;;;;;;;5091829;28;20914;-75
2023/10/28 14:03:05;;;;;;;1.73;1.37;;;;;;;;;;5091386;28;20490;-74
2023/10/28 14:05:33;;;;;;;1.83;1.50;;;;;;;;;;5093001;28;20508;-75
2023/10/28 14:08:00;;;;;;;2.40;2.10;;;;;;;;;;5093129;28;20451;-75
2023/10/28 14:10:27;;;;;;;1.87;1.40;;;;;;;;;;5092889;28;20489;-75
2023/10/28 14:12:55;;;;;;;2.83;1.50;;;;;;;;;;5093212;28;20815;-75
2023/10/28 14:15:23;;;;;;;2.33;1.33;;;;;;;;;;5093299;28;20451;-76
2023/10/28 14:17:50;;;;;;;2.27;1.20;;;;;;;;;;5093616;28;20969;-76
2023/10/28 14:20:18;;;;;;;2.03;1.20;;;;;;;;;;5092779;28;20447;-76
2023/10/28 14:22:45;;;;;;;4.43;1.30;;;;;;;;;;5093559;28;20556;-75
2023/10/28 14:25:12;;;;;;;2.63;1.13;;;;;;;;;;5093499;28;20911;-75
2023/10/28 14:27:42;;;;;;;7.70;2.43;;;;;;;;;;5093343;28;20453;-76
2023/10/28 14:30:13;;;;;;;3.03;1.83;;;;;;;;;;5092895;28;20450;-76
2023/10/28 14:32:45;;;;;;;13.33;6.80;;;;;;;;;;5092647;28;20495;-76
2023/10/28 14:35:12;;;;;;;3.33;2.10;;;;;;;;;;5092939;28;20890;-75
2023/10/28 14:37:39;;;;;;;3.10;1.70;;;;;;;;;;5092624;28;20453;-75
2023/10/28 14:40:07;;;;;;;9.37;4.13;;;;;;;;;;5092605;27;20509;-75
2023/10/28 14:42:38;;;;;;;5.60;3.83;;;;;;;;;;5092615;28;20490;-75
2023/10/28 14:45:07;;;;;;;2.00;1.50;;;;;;;;;;5092490;28;20446;-75
2023/10/28 14:47:34;;;;;;;2.30;1.30;;;;;;;;;;5092485;28;20541;-75